This is the latest recevied weather packets stored in our database for station/object WX5RP. If no packets are shown the sender has not sent any weather packets the latest 10 day(s).
| Time | Temp. | Humidity | Pressure | Rain* | Wind** | Luminosity | Snow |
|---|---|---|---|---|---|---|---|
| 1787482816 | 7.22° C | 80% | 1021.6 hPa | 0 mm | - | 0 W/m² | - |
| 1787482216 | 7.22° C | 79% | 1021.6 hPa | 0 mm | - | 0 W/m² | - |
| 1787481616 | 7.78° C | 78% | 1021.5 hPa | 0 mm | - | 0 W/m² | - |
| 1787481016 | 8.33° C | 77% | 1021.5 hPa | 0 mm | - | 0 W/m² | - |
| 1787480416 | 8.33° C | 76% | 1021.5 hPa | 0 mm | - | 0 W/m² | - |
| 1787479816 | 8.89° C | 76% | 1021.7 hPa | 0 mm | - | 0 W/m² | - |
| 1787479215 | 8.89° C | 77% | 1021.7 hPa | 0 mm | - | 0 W/m² | - |
| 1787478616 | 8.89° C | 78% | 1021.5 hPa | 0 mm | - | 0 W/m² | - |
| 1787478017 | 8.89° C | 77% | 1021.8 hPa | 0 mm | - | 0 W/m² | - |
| 1787477415 | 8.89° C | 79% | 1021.5 hPa | 0 mm | - | 0 W/m² | - |
| 1787476815 | 8.33° C | 77% | 1021.8 hPa | 0 mm | - | 0 W/m² | - |
| 1787476215 | 8.89° C | 76% | 1021.5 hPa | 0 mm | - | 0 W/m² | - |
| 1787475615 | 8.89° C | 76% | 1021.5 hPa | 0 mm | - | 0 W/m² | - |
| 1787475018 | 8.89° C | 75% | 1021.5 hPa | 0 mm | - | 0 W/m² | - |
| 1787474415 | 10.56° C | 71% | 1021.4 hPa | 0 mm | - | 0 W/m² | - |
| 1787473815 | 11.67° C | 67% | 1021.7 hPa | 0 mm | - | 0 W/m² | - |
| 1787473215 | 12.22° C | 67% | 1021.8 hPa | 0 mm | - | 0 W/m² | - |
| 1787472615 | 12.22° C | 68% | 1021.8 hPa | 0 mm | - | 0 W/m² | - |
| 1787472017 | 12.78° C | 68% | 1021.6 hPa | 0 mm | - | 0 W/m² | - |
| 1787471417 | 12.78° C | 66% | 1021.6 hPa | 0 mm | - | 0 W/m² | - |
| 1787470817 | 12.78° C | 66% | 1021.3 hPa | 0 mm | - | 0 W/m² | - |
| 1787470217 | 13.33° C | 65% | 1021.3 hPa | 0 mm | - | 0 W/m² | - |
| 1787469615 | 12.78° C | 67% | 1021.5 hPa | 0 mm | - | 0 W/m² | - |
| 1787469017 | 13.33° C | 63% | 1021.5 hPa | 0 mm | - | 0 W/m² | - |
| 1787468417 | 13.33° C | 61% | 1021.8 hPa | 0 mm | - | 0 W/m² | - |
* Rain latest hour (hover to see other rain measurements)
** Current wind speed in m/s (hover to see current wind gust speed)